sensor_id;sensor_type;location;lat;lon;timestamp;P1;durP1;ratioP1;P2;durP2;ratioP2
71821;SDS011;64096;52.548;13.406;2023-02-18T06:01:56;4.97;;;1.20;;
71821;SDS011;64096;52.548;13.406;2023-02-18T06:04:22;4.18;;;1.17;;
71821;SDS011;64096;52.548;13.406;2023-02-18T06:06:48;4.60;;;1.17;;
71821;SDS011;64096;52.548;13.406;2023-02-18T06:09:14;3.97;;;1.00;;
71821;SDS011;64096;52.548;13.406;2023-02-18T06:11:41;4.82;;;1.10;;
71821;SDS011;64096;52.548;13.406;2023-02-18T06:14:07;4.80;;;1.27;;
71821;SDS011;64096;52.548;13.406;2023-02-18T06:16:33;4.18;;;1.02;;
71821;SDS011;64096;52.548;13.406;2023-02-18T06:18:59;3.55;;;0.80;;
71821;SDS011;64096;52.548;13.406;2023-02-18T06:21:25;3.03;;;0.68;;
71821;SDS011;64096;52.548;13.406;2023-02-18T06:23:51;3.65;;;1.00;;
71821;SDS011;64096;52.548;13.406;2023-02-18T06:26:17;3.83;;;0.73;;
71821;SDS011;64096;52.548;13.406;2023-02-18T06:28:43;6.13;;;1.23;;
71821;SDS011;64096;52.548;13.406;2023-02-18T06:31:09;4.47;;;0.98;;
71821;SDS011;64096;52.548;13.406;2023-02-18T06:33:35;4.75;;;0.90;;
71821;SDS011;64096;52.548;13.406;2023-02-18T06:36:04;4.10;;;1.25;;
71821;SDS011;64096;52.548;13.406;2023-02-18T06:38:35;3.20;;;0.90;;
71821;SDS011;64096;52.548;13.406;2023-02-18T06:41:02;3.42;;;0.80;;
71821;SDS011;64096;52.548;13.406;2023-02-18T06:43:28;5.70;;;1.30;;
71821;SDS011;64096;52.548;13.406;2023-02-18T06:45:54;3.20;;;1.00;;
71821;SDS011;64096;52.548;13.406;2023-02-18T06:48:20;4.03;;;0.77;;
71821;SDS011;64096;52.548;13.406;2023-02-18T06:50:47;4.13;;;1.00;;
71821;SDS011;64096;52.548;13.406;2023-02-18T06:53:13;4.35;;;0.95;;
71821;SDS011;64096;52.548;13.406;2023-02-18T06:55:41;4.50;;;0.93;;
71821;SDS011;64096;52.548;13.406;2023-02-18T06:58:07;3.55;;;0.82;;
71821;SDS011;64096;52.548;13.406;2023-02-18T07:00:33;3.15;;;0.90;;
71821;SDS011;64096;52.548;13.406;2023-02-18T07:03:00;5.05;;;1.38;;
71821;SDS011;64096;52.548;13.406;2023-02-18T07:05:26;3.22;;;0.80;;
71821;SDS011;64096;52.548;13.406;2023-02-18T07:07:52;3.45;;;0.80;;
71821;SDS011;64096;52.548;13.406;2023-02-18T07:10:18;4.80;;;1.13;;
71821;SDS011;64096;52.548;13.406;2023-02-18T07:12:44;3.75;;;0.90;;
71821;SDS011;64096;52.548;13.406;2023-02-18T07:15:10;3.33;;;1.00;;
71821;SDS011;64096;52.548;13.406;2023-02-18T07:17:36;4.82;;;1.02;;
71821;SDS011;64096;52.548;13.406;2023-02-18T07:20:03;4.53;;;1.27;;
71821;SDS011;64096;52.548;13.406;2023-02-18T07:22:29;3.92;;;1.13;;
71821;SDS011;64096;52.548;13.406;2023-02-18T07:24:55;2.75;;;0.70;;
71821;SDS011;64096;52.548;13.406;2023-02-18T07:27:21;3.53;;;0.88;;
71821;SDS011;64096;52.548;13.406;2023-02-18T07:29:48;3.45;;;0.80;;
71821;SDS011;64096;52.548;13.406;2023-02-18T07:32:15;3.17;;;0.70;;
71821;SDS011;64096;52.548;13.406;2023-02-18T07:34:41;4.20;;;1.13;;
71821;SDS011;64096;52.548;13.406;2023-02-18T07:37:07;4.13;;;1.02;;
71821;SDS011;64096;52.548;13.406;2023-02-18T07:39:34;3.05;;;0.90;;
71821;SDS011;64096;52.548;13.406;2023-02-18T07:42:01;3.30;;;0.60;;
71821;SDS011;64096;52.548;13.406;2023-02-18T07:44:27;3.70;;;0.95;;
71821;SDS011;64096;52.548;13.406;2023-02-18T07:46:53;2.83;;;0.95;;
71821;SDS011;64096;52.548;13.406;2023-02-18T07:49:19;5.18;;;1.08;;
71821;SDS011;64096;52.548;13.406;2023-02-18T07:51:46;3.90;;;0.82;;
71821;SDS011;64096;52.548;13.406;2023-02-18T07:54:12;4.38;;;0.80;;
71821;SDS011;64096;52.548;13.406;2023-02-18T07:56:38;5.00;;;0.98;;
71821;SDS011;64096;52.548;13.406;2023-02-18T07:59:05;4.43;;;1.05;;
71821;SDS011;64096;52.548;13.406;2023-02-18T08:01:31;4.00;;;1.00;;
71821;SDS011;64096;52.548;13.406;2023-02-18T08:03:57;6.07;;;1.10;;
71821;SDS011;64096;52.548;13.406;2023-02-18T08:06:27;3.85;;;1.10;;
71821;SDS011;64096;52.548;13.406;2023-02-18T08:08:53;5.10;;;0.93;;
71821;SDS011;64096;52.548;13.406;2023-02-18T08:11:19;4.63;;;0.90;;
71821;SDS011;64096;52.548;13.406;2023-02-18T08:13:46;4.60;;;1.13;;
71821;SDS011;64096;52.548;13.406;2023-02-18T08:16:12;4.15;;;0.80;;
71821;SDS011;64096;52.548;13.406;2023-02-18T08:18:38;3.35;;;0.90;;
71821;SDS011;64096;52.548;13.406;2023-02-18T08:21:04;2.95;;;0.80;;
71821;SDS011;64096;52.548;13.406;2023-02-18T08:23:30;2.45;;;0.73;;
71821;SDS011;64096;52.548;13.406;2023-02-18T08:25:56;2.67;;;0.73;;
71821;SDS011;64096;52.548;13.406;2023-02-18T08:28:23;2.38;;;0.50;;
71821;SDS011;64096;52.548;13.406;2023-02-18T08:30:51;3.67;;;0.60;;
71821;SDS011;64096;52.548;13.406;2023-02-18T08:33:17;3.85;;;0.77;;
71821;SDS011;64096;52.548;13.406;2023-02-18T08:35:44;3.15;;;1.08;;
71821;SDS011;64096;52.548;13.406;2023-02-18T08:38:10;3.67;;;0.70;;
71821;SDS011;64096;52.548;13.406;2023-02-18T08:40:36;4.22;;;0.77;;
71821;SDS011;64096;52.548;13.406;2023-02-18T08:43:02;4.22;;;0.82;;
71821;SDS011;64096;52.548;13.406;2023-02-18T08:45:28;3.17;;;0.80;;
71821;SDS011;64096;52.548;13.406;2023-02-18T08:47:54;2.72;;;0.70;;
71821;SDS011;64096;52.548;13.406;2023-02-18T08:50:20;3.50;;;0.85;;
71821;SDS011;64096;52.548;13.406;2023-02-18T08:52:50;2.45;;;0.70;;
71821;SDS011;64096;52.548;13.406;2023-02-18T08:55:16;2.65;;;0.70;;
71821;SDS011;64096;52.548;13.406;2023-02-18T08:57:45;4.88;;;0.88;;
71821;SDS011;64096;52.548;13.406;2023-02-18T09:00:11;3.20;;;0.85;;
71821;SDS011;64096;52.548;13.406;2023-02-18T09:02:37;4.45;;;0.80;;
71821;SDS011;64096;52.548;13.406;2023-02-18T09:05:04;3.45;;;0.90;;
71821;SDS011;64096;52.548;13.406;2023-02-18T09:07:30;2.80;;;0.70;;
71821;SDS011;64096;52.548;13.406;2023-02-18T09:09:56;2.97;;;0.73;;
71821;SDS011;64096;52.548;13.406;2023-02-18T09:12:22;3.63;;;0.90;;
71821;SDS011;64096;52.548;13.406;2023-02-18T09:14:48;4.70;;;1.38;;
71821;SDS011;64096;52.548;13.406;2023-02-18T09:17:14;3.67;;;1.10;;
71821;SDS011;64096;52.548;13.406;2023-02-18T09:19:40;2.90;;;0.80;;
71821;SDS011;64096;52.548;13.406;2023-02-18T09:22:06;2.97;;;0.70;;
71821;SDS011;64096;52.548;13.406;2023-02-18T09:24:36;3.55;;;0.90;;
71821;SDS011;64096;52.548;13.406;2023-02-18T09:27:02;3.10;;;0.70;;
71821;SDS011;64096;52.548;13.406;2023-02-18T09:29:28;3.05;;;0.80;;
71821;SDS011;64096;52.548;13.406;2023-02-18T09:31:54;2.88;;;0.60;;
71821;SDS011;64096;52.548;13.406;2023-02-18T09:34:24;3.38;;;0.70;;
71821;SDS011;64096;52.548;13.406;2023-02-18T09:36:50;4.22;;;0.90;;
71821;SDS011;64096;52.548;13.406;2023-02-18T09:39:17;3.22;;;0.88;;
71821;SDS011;64096;52.548;13.406;2023-02-18T09:42:03;4.85;;;1.00;;
71821;SDS011;64096;52.548;13.406;2023-02-18T09:47:09;5.80;;;1.17;;
71821;SDS011;64096;52.548;13.406;2023-02-18T09:49:38;5.32;;;1.30;;
71821;SDS011;64096;52.548;13.406;2023-02-18T09:52:13;4.85;;;1.00;;
71821;SDS011;64096;52.548;13.406;2023-02-18T09:54:39;4.00;;;1.13;;
71821;SDS011;64096;52.548;13.406;2023-02-18T09:57:05;4.72;;;1.30;;
71821;SDS011;64096;52.548;13.406;2023-02-18T09:59:35;4.15;;;1.38;;
71821;SDS011;64096;52.548;13.406;2023-02-18T10:02:01;5.55;;;1.30;;
71821;SDS011;64096;52.548;13.406;2023-02-18T10:04:36;6.95;;;1.63;;
71821;SDS011;64096;52.548;13.406;2023-02-18T10:07:05;3.58;;;1.30;;
71821;SDS011;64096;52.548;13.406;2023-02-18T10:09:35;4.75;;;1.30;;
71821;SDS011;64096;52.548;13.406;2023-02-18T10:12:17;5.78;;;1.50;;
71821;SDS011;64096;52.548;13.406;2023-02-18T10:14:47;3.97;;;1.35;;
71821;SDS011;64096;52.548;13.406;2023-02-18T10:17:14;5.88;;;1.63;;
71821;SDS011;64096;52.548;13.406;2023-02-18T10:19:42;4.20;;;1.23;;
71821;SDS011;64096;52.548;13.406;2023-02-18T10:22:09;4.85;;;1.45;;
71821;SDS011;64096;52.548;13.406;2023-02-18T10:24:37;4.85;;;1.33;;
71821;SDS011;64096;52.548;13.406;2023-02-18T10:27:05;5.03;;;1.60;;
71821;SDS011;64096;52.548;13.406;2023-02-18T10:29:32;4.15;;;1.35;;
71821;SDS011;64096;52.548;13.406;2023-02-18T10:32:00;5.93;;;1.90;;
71821;SDS011;64096;52.548;13.406;2023-02-18T10:34:35;3.70;;;1.35;;
71821;SDS011;64096;52.548;13.406;2023-02-18T10:42:38;5.40;;;1.48;;
71821;SDS011;64096;52.548;13.406;2023-02-18T10:50:28;4.47;;;1.40;;
71821;SDS011;64096;52.548;13.406;2023-02-18T10:52:56;3.42;;;1.30;;
71821;SDS011;64096;52.548;13.406;2023-02-18T10:55:33;5.20;;;1.27;;
71821;SDS011;64096;52.548;13.406;2023-02-18T10:57:59;3.55;;;1.30;;
71821;SDS011;64096;52.548;13.406;2023-02-18T11:00:26;4.00;;;1.20;;
71821;SDS011;64096;52.548;13.406;2023-02-18T11:05:36;7.10;;;1.38;;
71821;SDS011;64096;52.548;13.406;2023-02-18T11:08:05;2.67;;;0.95;;
71821;SDS011;64096;52.548;13.406;2023-02-18T11:10:32;4.55;;;1.38;;
71821;SDS011;64096;52.548;13.406;2023-02-18T11:13:01;6.43;;;1.70;;
71821;SDS011;64096;52.548;13.406;2023-02-18T11:15:28;3.00;;;1.05;;
71821;SDS011;64096;52.548;13.406;2023-02-18T11:17:56;3.55;;;1.00;;
71821;SDS011;64096;52.548;13.406;2023-02-18T11:22:58;3.95;;;1.20;;
71821;SDS011;64096;52.548;13.406;2023-02-18T11:25:25;3.85;;;0.90;;
71821;SDS011;64096;52.548;13.406;2023-02-18T11:27:56;2.92;;;0.98;;
71821;SDS011;64096;52.548;13.406;2023-02-18T11:30:30;2.33;;;0.93;;
71821;SDS011;64096;52.548;13.406;2023-02-18T11:32:58;2.15;;;1.08;;
71821;SDS011;64096;52.548;13.406;2023-02-18T11:35:26;2.20;;;1.00;;
71821;SDS011;64096;52.548;13.406;2023-02-18T11:37:54;2.10;;;0.80;;
71821;SDS011;64096;52.548;13.406;2023-02-18T11:40:27;4.38;;;1.02;;
71821;SDS011;64096;52.548;13.406;2023-02-18T11:43:10;2.57;;;1.00;;
71821;SDS011;64096;52.548;13.406;2023-02-18T11:45:37;2.90;;;1.10;;
71821;SDS011;64096;52.548;13.406;2023-02-18T11:48:45;2.85;;;1.10;;
71821;SDS011;64096;52.548;13.406;2023-02-18T11:50:52;3.08;;;1.00;;
71821;SDS011;64096;52.548;13.406;2023-02-18T11:53:26;2.75;;;0.95;;
71821;SDS011;64096;52.548;13.406;2023-02-18T11:55:56;3.17;;;1.13;;
71821;SDS011;64096;52.548;13.406;2023-02-18T11:58:23;2.45;;;1.10;;
71821;SDS011;64096;52.548;13.406;2023-02-18T12:00:50;1.88;;;0.80;;
71821;SDS011;64096;52.548;13.406;2023-02-18T12:06:02;2.38;;;0.90;;
71821;SDS011;64096;52.548;13.406;2023-02-18T12:08:31;2.85;;;1.10;;
71821;SDS011;64096;52.548;13.406;2023-02-18T12:11:00;1.52;;;0.93;;
71821;SDS011;64096;52.548;13.406;2023-02-18T12:21:06;1.70;;;0.90;;
71821;SDS011;64096;52.548;13.406;2023-02-18T12:33:37;2.08;;;1.20;;
71821;SDS011;64096;52.548;13.406;2023-02-18T12:36:19;3.47;;;1.40;;
71821;SDS011;64096;52.548;13.406;2023-02-18T12:42:20;3.25;;;1.10;;
71821;SDS011;64096;52.548;13.406;2023-02-18T12:47:32;3.25;;;1.73;;
71821;SDS011;64096;52.548;13.406;2023-02-18T12:50:39;3.30;;;1.58;;
71821;SDS011;64096;52.548;13.406;2023-02-18T13:00:53;3.00;;;1.70;;
71821;SDS011;64096;52.548;13.406;2023-02-18T13:05:58;4.25;;;2.10;;
71821;SDS011;64096;52.548;13.406;2023-02-18T13:11:02;3.00;;;1.60;;
71821;SDS011;64096;52.548;13.406;2023-02-18T13:13:33;3.60;;;1.90;;
71821;SDS011;64096;52.548;13.406;2023-02-18T13:16:09;4.13;;;2.08;;
71821;SDS011;64096;52.548;13.406;2023-02-18T13:18:43;4.50;;;1.98;;
71821;SDS011;64096;52.548;13.406;2023-02-18T13:21:14;3.03;;;1.60;;
71821;SDS011;64096;52.548;13.406;2023-02-18T13:23:59;2.72;;;1.35;;
71821;SDS011;64096;52.548;13.406;2023-02-18T13:26:27;2.97;;;1.50;;
71821;SDS011;64096;52.548;13.406;2023-02-18T13:28:58;4.40;;;1.88;;
71821;SDS011;64096;52.548;13.406;2023-02-18T13:36:33;3.88;;;1.40;;
71821;SDS011;64096;52.548;13.406;2023-02-18T13:41:34;3.33;;;1.50;;
71821;SDS011;64096;52.548;13.406;2023-02-18T13:44:05;1.85;;;1.20;;
71821;SDS011;64096;52.548;13.406;2023-02-18T13:46:34;2.75;;;1.20;;
71821;SDS011;64096;52.548;13.406;2023-02-18T13:49:11;2.78;;;1.20;;
71821;SDS011;64096;52.548;13.406;2023-02-18T13:54:07;2.03;;;0.90;;
71821;SDS011;64096;52.548;13.406;2023-02-18T13:56:49;1.35;;;0.75;;
71821;SDS011;64096;52.548;13.406;2023-02-18T13:59:16;1.88;;;0.90;;
